Time;durP1;ratioP1;P1;durP2;ratioP2;P2;SDS_P1;SDS_P2;PMS_P1;PMS_P2;Temp;Humidity;BMP_temperature;BMP_pressure;BME280_temperature;BME280_humidity;BME280_pressure;Samples;Min_cycle;Max_cycle;Signal;HPM_P1;HPM_P2
2021/09/30 00:00:40;;;;;;;1.95;1.35;;;17.20;99.90;;;;;;5092808;28;20262;-79
2021/09/30 00:03:08;;;;;;;3.95;1.42;;;17.20;99.90;;;;;;5092876;28;20248;-78
2021/09/30 00:05:37;;;;;;;2.70;1.65;;;17.20;99.90;;;;;;5092314;28;20202;-79
2021/09/30 00:08:05;;;;;;;3.88;2.00;;;17.10;99.90;;;;;;5092316;28;20237;-78
2021/09/30 00:10:32;;;;;;;8.25;1.60;;;17.00;99.90;;;;;;5091835;28;20556;-76
2021/09/30 00:13:04;;;;;;;2.47;1.27;;;17.10;99.90;;;;;;5092787;28;20274;-78
2021/09/30 00:15:39;;;;;;;3.75;1.95;;;17.00;99.90;;;;;;5091677;28;20599;-78
2021/09/30 00:34:47;;;;;;;3.33;1.35;;;16.80;99.90;;;;;;5091725;28;20214;-79
2021/09/30 00:45:47;;;;;;;2.83;1.45;;;16.80;99.90;;;;;;5108012;28;20706;-77
2021/09/30 00:51:07;;;;;;;2.17;1.38;;;16.90;99.90;;;;;;5107329;28;20211;-77
2021/09/30 00:53:48;;;;;;;3.08;1.67;;;16.90;99.90;;;;;;5107665;28;20299;-78
2021/09/30 01:19:09;;;;;;;4.60;1.40;;;17.10;99.90;;;;;;5107354;28;20228;-78
2021/09/30 01:33:52;;;;;;;3.67;1.70;;;16.90;99.90;;;;;;5098057;28;20197;-79
2021/09/30 02:18:48;;;;;;;4.63;1.63;;;16.80;99.90;;;;;;5072799;28;20672;-76
2021/09/30 02:24:46;;;;;;;4.65;1.45;;;16.80;99.90;;;;;;5070351;28;20340;-76
2021/09/30 02:58:13;;;;;;;3.35;2.20;;;16.50;99.90;;;;;;5071585;28;20209;-77
2021/09/30 03:00:41;;;;;;;6.25;2.00;;;16.50;99.90;;;;;;5071802;28;20571;-76
2021/09/30 03:03:11;;;;;;;3.05;1.50;;;16.50;99.90;;;;;;5071685;28;20206;-77
2021/09/30 03:05:40;;;;;;;4.88;2.60;;;16.50;99.90;;;;;;5070371;28;20206;-77
2021/09/30 03:08:08;;;;;;;2.67;1.63;;;16.40;99.90;;;;;;5071541;28;20244;-77
2021/09/30 03:10:36;;;;;;;2.67;1.60;;;16.40;99.90;;;;;;5071397;28;20209;-77
2021/09/30 03:13:05;;;;;;;4.53;1.80;;;16.40;99.90;;;;;;5071814;28;20222;-78
2021/09/30 03:15:40;;;;;;;4.07;1.48;;;16.40;99.90;;;;;;5071081;28;20210;-78
2021/09/30 03:22:03;;;;;;;2.40;1.83;;;16.60;99.90;;;;;;5071030;28;20729;-77
2021/09/30 03:23:54;;;;;;;6.15;3.08;;;16.60;99.90;;;;;;5071542;28;20208;-78
2021/09/30 03:26:24;;;;;;;5.38;2.20;;;16.60;99.90;;;;;;5071810;28;20214;-78
2021/09/30 03:28:51;;;;;;;1.92;1.30;;;16.50;99.90;;;;;;5071696;28;20209;-78
2021/09/30 03:31:18;;;;;;;2.45;1.70;;;16.60;99.90;;;;;;5071667;28;20255;-77
2021/09/30 03:33:46;;;;;;;1.80;1.48;;;16.50;99.90;;;;;;5070715;28;20206;-77
2021/09/30 03:36:14;;;;;;;3.75;1.98;;;16.40;99.90;;;;;;5071177;28;20689;-77
2021/09/30 03:38:41;;;;;;;4.90;1.60;;;16.40;99.90;;;;;;5070849;28;20210;-76
2021/09/30 03:41:09;;;;;;;4.63;1.92;;;16.30;99.90;;;;;;5070891;28;20245;-77
2021/09/30 03:43:36;;;;;;;2.75;1.67;;;16.30;99.90;;;;;;5070737;28;20206;-76
2021/09/30 03:46:03;;;;;;;3.13;1.38;;;16.30;99.90;;;;;;5070813;28;20202;-77
2021/09/30 03:48:30;;;;;;;3.80;2.72;;;16.30;99.90;;;;;;5070450;28;20202;-77
2021/09/30 03:51:07;;;;;;;4.95;2.67;;;16.30;99.90;;;;;;5071005;28;20202;-77
2021/09/30 03:53:47;;;;;;;3.75;2.30;;;16.30;99.90;;;;;;5070381;28;20757;-76
2021/09/30 03:56:31;;;;;;;3.45;2.15;;;16.40;99.90;;;;;;5070719;28;20201;-76
2021/09/30 04:01:57;;;;;;;5.13;2.05;;;16.40;99.90;;;;;;5064291;28;20226;-75
2021/09/30 04:04:26;;;;;;;3.35;1.85;;;16.40;99.90;;;;;;5071204;28;20199;-75
2021/09/30 04:06:54;;;;;;;4.15;1.95;;;16.40;99.90;;;;;;5070981;28;20260;-74
2021/09/30 04:09:26;;;;;;;1.52;1.38;;;16.40;99.90;;;;;;5071413;28;20213;-75
2021/09/30 04:11:55;;;;;;;4.93;2.20;;;16.40;99.90;;;;;;5070845;28;20701;-75
2021/09/30 04:14:22;;;;;;;3.00;1.52;;;16.50;99.90;;;;;;5071161;28;20256;-75
2021/09/30 04:16:50;;;;;;;2.15;1.02;;;16.40;99.90;;;;;;5069879;28;20209;-75
2021/09/30 04:19:18;;;;;;;2.83;1.50;;;16.40;99.90;;;;;;5070695;28;20268;-74
2021/09/30 04:21:45;;;;;;;4.43;1.67;;;16.40;99.90;;;;;;5069888;28;20320;-75
2021/09/30 04:24:12;;;;;;;2.72;1.33;;;16.40;99.90;;;;;;5070828;28;20210;-75
2021/09/30 04:26:39;;;;;;;3.47;1.40;;;16.30;99.90;;;;;;5070142;28;20202;-75
2021/09/30 04:29:07;;;;;;;3.30;1.95;;;16.30;99.90;;;;;;5070139;28;20210;-75
2021/09/30 04:31:35;;;;;;;5.35;1.73;;;16.30;99.90;;;;;;5069796;28;20605;-75
2021/09/30 04:34:02;;;;;;;3.25;1.73;;;16.30;99.90;;;;;;5070484;28;20256;-76
2021/09/30 04:36:29;;;;;;;3.67;1.65;;;16.30;99.90;;;;;;5070367;28;20218;-75
2021/09/30 04:38:56;;;;;;;7.50;2.20;;;16.30;99.90;;;;;;5070065;28;20210;-75
2021/09/30 04:41:23;;;;;;;5.22;2.00;;;16.30;99.90;;;;;;5070333;28;20572;-75
2021/09/30 04:43:51;;;;;;;4.80;1.70;;;16.30;99.90;;;;;;5070323;28;20259;-74
2021/09/30 04:46:21;;;;;;;5.15;2.00;;;16.30;99.90;;;;;;5070463;28;20256;-75
2021/09/30 04:48:49;;;;;;;3.90;1.52;;;16.30;99.90;;;;;;5070161;28;20210;-75
2021/09/30 04:51:16;;;;;;;7.40;1.45;;;16.30;99.90;;;;;;5070793;28;20206;-75
2021/09/30 04:53:44;;;;;;;3.35;1.52;;;16.30;99.90;;;;;;5070023;28;20205;-75
2021/09/30 04:56:12;;;;;;;4.20;1.63;;;16.30;99.90;;;;;;5069559;28;20205;-75
2021/09/30 04:58:39;;;;;;;3.17;1.23;;;16.30;99.90;;;;;;5070013;28;20227;-75
2021/09/30 05:01:07;;;;;;;3.78;1.85;;;16.30;99.90;;;;;;5069684;28;20210;-75
2021/09/30 05:03:35;;;;;;;2.90;1.55;;;16.30;99.90;;;;;;5069885;28;20226;-75
2021/09/30 05:06:02;;;;;;;1.85;1.73;;;16.40;99.90;;;;;;5070186;28;20202;-75
2021/09/30 05:08:33;;;;;;;5.60;2.33;;;16.30;99.90;;;;;;5069566;28;20214;-79
2021/09/30 05:11:01;;;;;;;3.70;1.73;;;16.30;99.90;;;;;;5070342;28;20206;-78
2021/09/30 05:13:37;;;;;;;3.08;1.42;;;16.30;99.90;;;;;;5069510;28;20205;-79
2021/09/30 05:16:04;;;;;;;3.22;2.25;;;16.30;99.90;;;;;;5069937;28;20232;-78
2021/09/30 05:18:32;;;;;;;2.85;1.55;;;16.30;99.90;;;;;;5069573;28;20214;-79
2021/09/30 05:21:00;;;;;;;2.05;1.27;;;16.30;99.90;;;;;;5070018;28;20259;-79
2021/09/30 05:23:27;;;;;;;5.45;1.63;;;16.40;99.90;;;;;;5069459;28;20233;-79
2021/09/30 05:25:54;;;;;;;3.63;1.60;;;16.40;99.90;;;;;;5070159;28;20628;-78
2021/09/30 05:28:21;;;;;;;4.13;1.55;;;16.40;99.90;;;;;;5071940;28;20669;-78
2021/09/30 05:30:48;;;;;;;3.55;1.45;;;16.30;99.90;;;;;;5073111;28;20206;-78
2021/09/30 05:33:16;;;;;;;5.88;2.08;;;16.30;99.90;;;;;;5075413;28;20206;-75
2021/09/30 05:35:43;;;;;;;7.22;2.13;;;16.20;99.90;;;;;;5072697;28;20198;-77
2021/09/30 05:38:12;;;;;;;3.67;1.73;;;16.20;99.90;;;;;;5073453;28;20210;-76
2021/09/30 05:40:39;;;;;;;5.50;1.45;;;16.10;99.90;;;;;;5072815;28;20218;-87
2021/09/30 05:43:09;;;;;;;4.82;1.83;;;16.10;99.90;;;;;;5068660;28;20219;-75
2021/09/30 05:45:41;;;;;;;4.20;1.60;;;16.10;99.90;;;;;;5072867;28;20203;-77
2021/09/30 05:48:08;;;;;;;4.53;2.08;;;16.20;99.90;;;;;;5073155;28;20210;-75
2021/09/30 05:50:36;;;;;;;2.33;1.38;;;16.10;99.90;;;;;;5071868;28;20271;-75
2021/09/30 05:53:04;;;;;;;4.10;1.40;;;16.10;99.90;;;;;;5073069;28;20742;-78
2021/09/30 05:55:32;;;;;;;4.45;1.50;;;16.10;99.90;;;;;;5072924;28;20641;-80
2021/09/30 05:57:59;;;;;;;3.33;1.52;;;16.10;99.90;;;;;;5073236;28;20211;-79
2021/09/30 06:00:31;;;;;;;3.28;1.20;;;16.10;99.90;;;;;;5072850;28;20210;-79
2021/09/30 06:11:32;;;;;;;3.60;1.38;;;16.00;99.90;;;;;;5073247;28;20205;-78
2021/09/30 06:14:02;;;;;;;2.00;0.93;;;16.00;99.90;;;;;;5059934;28;20707;-79
2021/09/30 06:16:31;;;;;;;4.60;2.20;;;16.10;99.90;;;;;;5073074;28;20206;-79
2021/09/30 06:18:58;;;;;;;3.70;1.45;;;16.00;99.90;;;;;;5072397;28;20591;-83
2021/09/30 06:21:25;;;;;;;3.45;1.38;;;16.00;99.90;;;;;;5068604;28;20704;-81
2021/09/30 06:23:52;;;;;;;2.20;1.80;;;16.10;99.90;;;;;;5071833;28;20355;-80
2021/09/30 06:26:19;;;;;;;11.80;2.15;;;16.10;99.90;;;;;;5072498;28;20264;-78
2021/09/30 06:28:47;;;;;;;8.38;1.33;;;16.10;99.90;;;;;;5071890;28;20264;-80
2021/09/30 06:31:14;;;;;;;4.28;1.65;;;16.10;99.90;;;;;;5072864;28;20213;-81
2021/09/30 06:33:41;;;;;;;3.95;1.77;;;16.20;99.90;;;;;;5071002;28;20213;-80
2021/09/30 06:36:08;;;;;;;4.60;1.50;;;16.30;99.90;;;;;;5072516;28;20618;-80
2021/09/30 06:38:35;;;;;;;2.42;1.30;;;16.30;99.90;;;;;;5071959;28;20209;-79
2021/09/30 06:41:02;;;;;;;2.30;1.67;;;16.30;99.90;;;;;;5058447;28;20218;-79
2021/09/30 06:43:29;;;;;;;3.72;1.55;;;16.30;99.90;;;;;;5071937;28;20283;-79
2021/09/30 06:45:57;;;;;;;11.27;1.70;;;16.40;99.90;;;;;;5072284;28;20202;-79
2021/09/30 06:48:26;;;;;;;3.95;1.73;;;16.40;99.90;;;;;;5072476;28;20267;-76
2021/09/30 06:50:53;;;;;;;2.22;1.90;;;16.50;99.90;;;;;;5072284;28;20666;-80
2021/09/30 06:53:20;;;;;;;2.80;1.48;;;16.50;99.90;;;;;;5068539;28;20263;-82
2021/09/30 06:55:47;;;;;;;4.13;1.77;;;16.50;99.90;;;;;;5064921;28;20218;-81
2021/09/30 06:58:14;;;;;;;8.88;2.40;;;16.50;99.90;;;;;;5071820;28;20210;-79
2021/09/30 07:00:42;;;;;;;2.03;1.40;;;16.50;99.90;;;;;;5076811;28;20214;-89
2021/09/30 07:03:11;;;;;;;4.50;2.25;;;16.50;99.90;;;;;;5067737;28;20230;-80
2021/09/30 07:05:40;;;;;;;2.75;2.22;;;16.50;99.90;;;;;;5070777;28;20206;-74
2021/09/30 07:08:07;;;;;;;2.13;1.38;;;16.60;99.90;;;;;;5070969;28;20639;-76
2021/09/30 07:10:34;;;;;;;2.65;1.33;;;16.60;99.90;;;;;;5070921;28;20202;-77
2021/09/30 07:13:01;;;;;;;3.55;1.83;;;16.80;99.90;;;;;;5075811;28;20742;-82
2021/09/30 07:15:28;;;;;;;1.70;1.02;;;16.80;99.90;;;;;;5070974;28;20256;-81
2021/09/30 07:17:56;;;;;;;3.75;1.95;;;16.80;99.90;;;;;;5071729;28;20206;-82
2021/09/30 07:20:24;;;;;;;1.50;1.08;;;16.90;99.90;;;;;;5071541;28;20198;-86
2021/09/30 07:22:51;;;;;;;4.50;1.92;;;17.00;99.90;;;;;;5071736;28;20271;-83
2021/09/30 07:25:22;;;;;;;2.38;0.95;;;17.00;99.90;;;;;;5071226;28;20275;-80
2021/09/30 07:27:49;;;;;;;5.75;1.25;;;17.20;99.90;;;;;;5070867;28;20681;-87
2021/09/30 07:30:15;;;;;;;4.13;1.65;;;17.30;99.90;;;;;;5071086;28;20206;-79
2021/09/30 07:32:42;;;;;;;6.10;1.70;;;17.50;99.90;;;;;;5071019;28;20206;-83
2021/09/30 07:35:10;;;;;;;5.32;1.00;;;17.60;99.90;;;;;;5071155;28;20630;-80
2021/09/30 07:37:38;;;;;;;3.22;1.33;;;17.60;99.90;;;;;;5070881;28;20263;-84
2021/09/30 07:40:06;;;;;;;2.75;1.40;;;17.60;99.90;;;;;;5071350;28;20265;-81
2021/09/30 07:42:34;;;;;;;2.40;1.48;;;17.60;99.90;;;;;;5070254;28;20242;-81
2021/09/30 07:45:01;;;;;;;2.72;0.77;;;17.80;99.90;;;;;;5070918;28;20206;-79
2021/09/30 07:47:28;;;;;;;2.08;1.75;;;17.90;99.90;;;;;;5070288;28;20206;-81
2021/09/30 07:49:54;;;;;;;2.80;1.10;;;17.80;99.90;;;;;;5071003;28;20206;-73
2021/09/30 07:52:21;;;;;;;3.10;1.00;;;17.70;99.90;;;;;;5070856;28;20253;-80
2021/09/30 07:54:50;;;;;;;5.07;1.25;;;17.70;99.90;;;;;;5070459;28;20210;-80
2021/09/30 07:57:17;;;;;;;2.42;1.48;;;17.80;99.90;;;;;;5070818;28;20260;-82
2021/09/30 07:59:44;;;;;;;2.05;1.65;;;17.90;99.90;;;;;;5070242;28;20698;-81
2021/09/30 08:02:11;;;;;;;3.17;1.20;;;17.80;99.90;;;;;;5070668;28;20798;-80
2021/09/30 08:04:38;;;;;;;2.58;1.23;;;17.80;99.90;;;;;;5070391;28;20210;-81
2021/09/30 08:07:06;;;;;;;6.50;1.38;;;17.90;99.90;;;;;;5070873;28;20209;-81
2021/09/30 08:09:33;;;;;;;4.18;1.60;;;17.90;99.90;;;;;;5070462;28;20245;-80
2021/09/30 08:12:02;;;;;;;1.92;1.20;;;18.10;99.90;;;;;;5070706;28;20244;-80
2021/09/30 08:14:29;;;;;;;3.20;1.40;;;18.30;99.90;;;;;;5070049;28;20210;-78
2021/09/30 08:16:56;;;;;;;2.97;1.30;;;18.30;99.90;;;;;;5070449;28;20218;-79
2021/09/30 08:19:23;;;;;;;3.33;1.00;;;18.30;99.90;;;;;;5071067;28;20271;-81
2021/09/30 08:21:51;;;;;;;4.70;1.27;;;18.40;99.90;;;;;;5070437;28;20619;-79
2021/09/30 08:24:20;;;;;;;7.72;1.90;;;18.40;99.90;;;;;;5070731;28;20241;-79
2021/09/30 08:26:48;;;;;;;5.43;2.80;;;18.30;99.90;;;;;;5070006;28;20678;-76
2021/09/30 08:29:19;;;;;;;1.48;0.93;;;18.40;99.90;;;;;;5070627;28;20634;-75
2021/09/30 08:31:46;;;;;;;4.60;1.55;;;18.50;99.90;;;;;;5070230;28;20666;-75
2021/09/30 08:34:13;;;;;;;3.67;1.30;;;18.60;99.90;;;;;;5070645;28;20206;-76
2021/09/30 08:36:41;;;;;;;1.73;1.42;;;18.70;99.90;;;;;;5070346;28;20259;-76
2021/09/30 08:39:10;;;;;;;1.17;1.08;;;18.70;99.90;;;;;;5069982;28;20255;-74
2021/09/30 08:41:38;;;;;;;3.67;1.25;;;18.70;99.90;;;;;;5070178;28;20218;-74
2021/09/30 08:44:05;;;;;;;1.58;1.02;;;19.00;99.90;;;;;;5070060;28;20234;-74
2021/09/30 08:46:35;;;;;;;4.93;1.48;;;19.20;99.90;;;;;;5069967;28;20252;-74
2021/09/30 08:49:04;;;;;;;2.53;1.38;;;19.20;99.90;;;;;;5070379;28;20202;-77
2021/09/30 08:51:31;;;;;;;4.70;1.02;;;19.60;99.90;;;;;;5069858;28;20622;-75
2021/09/30 08:53:58;;;;;;;6.03;1.13;;;19.90;99.90;;;;;;5068032;28;20210;-76
2021/09/30 08:56:25;;;;;;;3.22;1.10;;;20.10;99.90;;;;;;5070188;28;20198;-76
2021/09/30 08:58:52;;;;;;;5.80;1.67;;;19.80;99.90;;;;;;5070843;28;20214;-75
2021/09/30 09:01:19;;;;;;;5.60;1.23;;;19.90;99.90;;;;;;5070163;28;20205;-77
2021/09/30 09:03:49;;;;;;;4.55;1.38;;;19.90;99.90;;;;;;5072147;28;20234;-77
2021/09/30 09:06:30;;;;;;;6.13;1.65;;;19.60;99.90;;;;;;5073512;28;20449;-76
2021/09/30 09:09:20;;;;;;;1.15;0.90;;;19.40;99.90;;;;;;5074539;28;20214;-76
2021/09/30 09:11:48;;;;;;;2.28;1.65;;;19.50;99.90;;;;;;5073582;28;20648;-76
2021/09/30 09:14:22;;;;;;;4.32;1.58;;;19.60;99.90;;;;;;5074141;28;20210;-76
2021/09/30 09:16:55;;;;;;;1.48;1.20;;;19.60;99.90;;;;;;5074226;28;20206;-76
2021/09/30 09:19:31;;;;;;;2.90;1.63;;;19.60;99.90;;;;;;5074117;28;20252;-75
2021/09/30 09:22:05;;;;;;;2.28;0.88;;;19.60;99.90;;;;;;5073426;28;20205;-74
2021/09/30 09:24:32;;;;;;;2.20;1.33;;;19.50;99.90;;;;;;5073573;28;20226;-76
2021/09/30 09:27:00;;;;;;;4.13;1.15;;;19.20;99.90;;;;;;5073421;28;20209;-76
2021/09/30 09:29:31;;;;;;;1.70;1.55;;;19.20;99.90;;;;;;5073562;28;20591;-76
2021/09/30 09:32:03;;;;;;;3.15;1.17;;;19.30;99.90;;;;;;5073648;28;20293;-77
2021/09/30 09:34:36;;;;;;;2.72;1.13;;;19.10;99.90;;;;;;5073051;28;20194;-77
2021/09/30 09:37:27;;;;;;;2.05;0.90;;;19.00;99.90;;;;;;5073067;28;20664;-76
2021/09/30 09:39:55;;;;;;;3.50;1.83;;;18.80;99.90;;;;;;5073684;28;20585;-73
2021/09/30 09:42:27;;;;;;;2.13;1.08;;;18.60;99.90;;;;;;5073392;28;20640;-76
2021/09/30 09:44:56;;;;;;;1.98;1.77;;;18.50;99.90;;;;;;5073452;28;20229;-74
2021/09/30 09:47:24;;;;;;;3.22;1.63;;;18.60;99.90;;;;;;5073432;28;20669;-76
2021/09/30 09:50:18;;;;;;;2.72;1.95;;;18.80;99.90;;;;;;5073609;28;20263;-74
2021/09/30 09:52:48;;;;;;;1.70;1.33;;;18.90;99.90;;;;;;5072841;28;20206;-76
2021/09/30 09:55:17;;;;;;;2.47;1.23;;;19.00;99.90;;;;;;5073613;28;20214;-76
2021/09/30 09:57:59;;;;;;;2.33;1.20;;;19.10;99.90;;;;;;5072611;28;20640;-76
2021/09/30 10:00:26;;;;;;;2.50;0.85;;;19.00;99.90;;;;;;5072812;28;20202;-74
2021/09/30 10:02:53;;;;;;;1.98;1.10;;;19.00;99.90;;;;;;5073011;28;20561;-77
2021/09/30 10:05:23;;;;;;;2.63;1.13;;;18.90;99.90;;;;;;5073495;28;20210;-76
2021/09/30 10:07:50;;;;;;;3.80;0.95;;;18.70;99.90;;;;;;5073125;28;20237;-77
2021/09/30 10:10:17;;;;;;;2.88;1.40;;;18.60;99.90;;;;;;5072673;28;20206;-76
2021/09/30 10:12:45;;;;;;;2.42;0.80;;;18.60;99.90;;;;;;5072665;28;20214;-76
2021/09/30 10:15:13;;;;;;;2.20;1.40;;;18.60;99.90;;;;;;5072396;28;20267;-76
2021/09/30 10:17:40;;;;;;;2.20;1.10;;;18.70;99.90;;;;;;5072634;28;20202;-76
2021/09/30 10:20:08;;;;;;;1.98;1.20;;;19.00;99.90;;;;;;5072481;28;20210;-76
2021/09/30 10:22:37;;;;;;;1.92;1.55;;;18.80;99.90;;;;;;5072415;28;20612;-76
2021/09/30 10:25:05;;;;;;;4.43;1.38;;;18.90;99.90;;;;;;5072353;28;20779;-78
2021/09/30 10:27:36;;;;;;;3.05;1.50;;;19.10;99.90;;;;;;5072250;28;20210;-77
2021/09/30 10:30:03;;;;;;;3.50;1.58;;;19.10;99.90;;;;;;5072496;28;20198;-76
2021/09/30 10:32:49;;;;;;;2.33;0.63;;;19.40;99.90;;;;;;5072162;28;20202;-76
2021/09/30 10:35:30;;;;;;;1.40;0.73;;;19.40;99.90;;;;;;5072118;28;20206;-76
2021/09/30 10:38:16;;;;;;;2.33;0.90;;;19.90;99.90;;;;;;5072504;28;20214;-77
2021/09/30 10:41:09;;;;;;;1.58;1.23;;;20.00;99.90;;;;;;5071907;28;20210;-76
2021/09/30 10:43:41;;;;;;;0.57;0.55;;;19.70;99.90;;;;;;5072080;28;20245;-78
2021/09/30 10:46:10;;;;;;;0.70;0.60;;;19.80;99.90;;;;;;5066377;28;20234;-75
2021/09/30 10:48:41;;;;;;;6.28;0.85;;;19.90;99.90;;;;;;5071867;28;20246;-76
2021/09/30 10:51:11;;;;;;;2.25;1.13;;;20.20;99.90;;;;;;5071787;28;20288;-79
2021/09/30 10:54:00;;;;;;;2.10;0.65;;;20.10;99.90;;;;;;5071922;28;20249;-78
2021/09/30 10:56:40;;;;;;;1.48;0.70;;;20.20;99.90;;;;;;5071592;28;20293;-75
2021/09/30 10:59:41;;;;;;;0.82;0.60;;;20.40;99.90;;;;;;5071882;28;20213;-79
2021/09/30 11:02:12;;;;;;;3.15;1.10;;;19.80;99.90;;;;;;5067405;28;20670;-77
2021/09/30 11:05:05;;;;;;;1.30;1.20;;;20.50;99.90;;;;;;5065617;28;20586;-79
2021/09/30 11:07:32;;;;;;;0.88;0.40;;;20.90;99.90;;;;;;5071390;28;20210;-79
2021/09/30 11:10:25;;;;;;;2.25;0.68;;;21.10;99.90;;;;;;5071598;28;20262;-78
2021/09/30 11:13:18;;;;;;;2.15;0.82;;;21.10;99.90;;;;;;5072062;28;20202;-74
2021/09/30 11:16:05;;;;;;;3.60;0.60;;;21.30;99.90;;;;;;5071421;28;20584;-74
2021/09/30 11:18:41;;;;;;;2.05;0.52;;;21.50;99.90;;;;;;5070882;28;20210;-74
2021/09/30 11:21:42;;;;;;;1.58;0.73;;;21.30;99.90;;;;;;5071454;28;20202;-73
2021/09/30 11:24:10;;;;;;;1.13;0.50;;;21.00;99.90;;;;;;5061947;28;20343;-75
2021/09/30 11:27:09;;;;;;;2.13;0.80;;;20.90;99.90;;;;;;5070285;28;20210;-75
2021/09/30 11:29:37;;;;;;;2.47;0.93;;;21.00;99.90;;;;;;5063922;28;20659;-74
2021/09/30 11:32:25;;;;;;;1.88;0.50;;;21.00;99.90;;;;;;5070439;28;20202;-74
2021/09/30 11:34:54;;;;;;;3.97;0.77;;;21.20;99.90;;;;;;5071627;28;20206;-74
2021/09/30 11:37:25;;;;;;;6.32;1.27;;;21.40;99.90;;;;;;5071433;28;20205;-75
2021/09/30 11:39:53;;;;;;;1.10;0.65;;;21.70;99.90;;;;;;5071239;28;20198;-74
2021/09/30 11:42:23;;;;;;;1.52;0.50;;;21.40;99.90;;;;;;5070954;28;20218;-77
2021/09/30 11:45:02;;;;;;;5.85;2.03;;;21.30;99.90;;;;;;5071151;28;20233;-75
2021/09/30 11:47:31;;;;;;;1.95;1.33;;;21.00;99.90;;;;;;5070420;28;20568;-74
2021/09/30 11:49:58;;;;;;;2.97;0.95;;;20.80;99.90;;;;;;5071103;28;20271;-73
2021/09/30 11:52:26;;;;;;;2.05;1.38;;;20.60;99.90;;;;;;5070872;28;20202;-73
2021/09/30 11:54:54;;;;;;;4.13;1.73;;;20.40;99.90;;;;;;5071181;28;20209;-74
2021/09/30 11:57:25;;;;;;;2.05;0.60;;;20.60;99.90;;;;;;5070802;28;20654;-74
2021/09/30 11:59:52;;;;;;;0.60;0.40;;;20.50;99.90;;;;;;5067851;28;20275;-75
2021/09/30 12:02:21;;;;;;;2.25;0.82;;;20.60;99.90;;;;;;5070371;28;20256;-75
2021/09/30 12:04:49;;;;;;;0.75;0.60;;;20.40;99.90;;;;;;5064308;28;20227;-78
2021/09/30 12:07:18;;;;;;;3.42;1.10;;;20.70;99.90;;;;;;5070588;28;20225;-77
2021/09/30 12:09:46;;;;;;;1.13;0.73;;;21.10;99.90;;;;;;5070255;28;20210;-78
2021/09/30 12:12:13;;;;;;;1.55;0.80;;;20.70;99.90;;;;;;5070451;28;20206;-80
2021/09/30 12:14:43;;;;;;;1.73;0.80;;;20.70;99.90;;;;;;5069931;28;20455;-76
2021/09/30 12:17:14;;;;;;;2.58;0.60;;;20.70;99.90;;;;;;5070200;28;20214;-75
2021/09/30 12:19:43;;;;;;;2.58;1.15;;;20.90;99.90;;;;;;5070525;28;20228;-78
2021/09/30 12:22:12;;;;;;;5.45;1.08;;;20.50;99.90;;;;;;5070756;28;20198;-76
2021/09/30 12:24:43;;;;;;;2.05;0.50;;;20.50;99.90;;;;;;5070186;28;20225;-82
2021/09/30 12:27:11;;;;;;;3.00;1.02;;;20.70;99.90;;;;;;5070413;28;20202;-78
2021/09/30 12:29:44;;;;;;;2.28;0.88;;;20.60;99.90;;;;;;5069810;28;20264;-80
2021/09/30 12:32:15;;;;;;;1.70;1.27;;;20.70;99.90;;;;;;5070031;28;20628;-81
2021/09/30 12:34:53;;;;;;;3.95;0.70;;;20.80;99.90;;;;;;5069807;28;20218;-78
2021/09/30 12:37:26;;;;;;;1.25;0.70;;;20.90;99.90;;;;;;5070938;28;20206;-73
2021/09/30 12:40:01;;;;;;;3.50;0.60;;;20.70;99.90;;;;;;5070385;28;20198;-80
2021/09/30 12:42:28;;;;;;;1.65;0.60;;;21.00;99.90;;;;;;5069652;28;20215;-80
2021/09/30 12:44:57;;;;;;;2.15;0.60;;;21.00;99.90;;;;;;5067583;28;20618;-78
2021/09/30 12:47:32;;;;;;;1.25;0.60;;;20.70;99.90;;;;;;5069873;28;20301;-74
2021/09/30 12:50:07;;;;;;;2.97;0.70;;;20.40;99.90;;;;;;5061934;28;20264;-76
2021/09/30 12:52:34;;;;;;;1.52;0.55;;;20.70;99.90;;;;;;5066644;28;20257;-76
2021/09/30 12:55:04;;;;;;;5.82;0.70;;;20.60;99.90;;;;;;5070175;28;20240;-78
2021/09/30 12:57:36;;;;;;;1.23;0.47;;;20.80;99.90;;;;;;5069360;28;20752;-75
2021/09/30 13:00:08;;;;;;;3.60;0.50;;;20.70;99.90;;;;;;5058768;28;20638;-76
2021/09/30 13:02:35;;;;;;;2.80;0.60;;;20.90;99.90;;;;;;5069525;28;20285;-76
2021/09/30 13:05:02;;;;;;;1.67;0.40;;;21.00;99.90;;;;;;5069760;28;20229;-76
2021/09/30 13:07:47;;;;;;;0.63;0.52;;;20.60;99.90;;;;;;5069318;28;20206;-76
2021/09/30 13:10:15;;;;;;;1.55;0.50;;;20.60;99.90;;;;;;5070004;28;20267;-76
2021/09/30 13:13:01;;;;;;;0.57;0.52;;;20.60;99.90;;;;;;5069929;28;20203;-74
2021/09/30 13:15:42;;;;;;;1.10;0.77;;;20.60;99.90;;;;;;5069508;28;20244;-76
2021/09/30 13:18:11;;;;;;;1.25;0.70;;;20.60;99.90;;;;;;5069688;28;20202;-76
2021/09/30 13:20:39;;;;;;;2.78;0.77;;;20.70;99.90;;;;;;5056583;28;20255;-74
2021/09/30 13:23:07;;;;;;;1.38;0.38;;;20.60;99.90;;;;;;5070077;28;20202;-77
2021/09/30 13:25:34;;;;;;;0.30;0.30;;;20.80;99.90;;;;;;5069268;28;20275;-77
2021/09/30 13:28:01;;;;;;;0.52;0.40;;;20.90;99.90;;;;;;5069681;28;20288;-76
2021/09/30 13:30:30;;;;;;;1.95;0.47;;;20.90;99.90;;;;;;5069116;28;20557;-76
2021/09/30 13:33:01;;;;;;;0.50;0.50;;;20.90;99.90;;;;;;5069943;28;20343;-75
2021/09/30 13:35:30;;;;;;;2.40;0.50;;;21.00;99.90;;;;;;5069143;28;20724;-73
2021/09/30 13:37:57;;;;;;;0.55;0.55;;;21.10;99.90;;;;;;5070085;28;20248;-76
2021/09/30 13:40:25;;;;;;;0.75;0.45;;;20.80;99.90;;;;;;5069649;28;20215;-73
2021/09/30 13:42:53;;;;;;;2.42;0.50;;;20.70;99.90;;;;;;5069974;28;20210;-76
2021/09/30 13:45:22;;;;;;;0.57;0.43;;;20.80;99.90;;;;;;5070027;28;20275;-71
2021/09/30 13:47:49;;;;;;;1.50;0.40;;;20.80;99.90;;;;;;5069615;28;20689;-76
2021/09/30 13:50:20;;;;;;;2.20;1.02;;;20.70;99.90;;;;;;5070516;28;20264;-78
2021/09/30 13:52:50;;;;;;;2.28;0.40;;;20.70;99.90;;;;;;5072735;28;20218;-73
2021/09/30 13:55:18;;;;;;;1.25;0.60;;;20.70;99.90;;;;;;5073144;28;20202;-77
2021/09/30 13:57:46;;;;;;;2.38;0.50;;;20.60;99.90;;;;;;5072525;28;20638;-75
2021/09/30 14:00:16;;;;;;;2.28;0.50;;;20.50;99.90;;;;;;5073372;28;20256;-76
2021/09/30 14:02:45;;;;;;;0.70;0.50;;;20.60;99.90;;;;;;5072721;28;20206;-75
2021/09/30 14:05:14;;;;;;;1.38;0.43;;;20.50;99.90;;;;;;5072786;28;20653;-74
2021/09/30 14:07:43;;;;;;;1.05;0.45;;;20.50;99.90;;;;;;5072988;28;20209;-76
2021/09/30 14:10:13;;;;;;;1.48;0.40;;;20.50;99.90;;;;;;5072940;28;20263;-75
2021/09/30 14:12:40;;;;;;;1.75;0.70;;;20.40;99.90;;;;;;5072336;28;20198;-76
2021/09/30 14:15:08;;;;;;;2.60;0.75;;;20.30;99.90;;;;;;5072590;28;20279;-74
2021/09/30 14:17:35;;;;;;;0.88;0.60;;;20.30;99.90;;;;;;5072478;28;20202;-75
2021/09/30 14:20:03;;;;;;;0.95;0.50;;;20.30;99.90;;;;;;5072870;28;20287;-76
2021/09/30 14:22:29;;;;;;;0.80;0.77;;;20.20;99.90;;;;;;5072456;28;20206;-76
2021/09/30 14:24:58;;;;;;;0.95;0.50;;;20.20;99.90;;;;;;5072805;28;20287;-76
2021/09/30 14:27:28;;;;;;;0.88;0.50;;;20.20;99.90;;;;;;5072374;28;20206;-76
2021/09/30 14:29:55;;;;;;;1.75;0.40;;;20.10;99.90;;;;;;5072644;28;20242;-76
2021/09/30 14:32:22;;;;;;;1.33;0.82;;;20.10;99.90;;;;;;5072504;28;20202;-76
2021/09/30 14:34:49;;;;;;;1.30;0.50;;;20.10;99.90;;;;;;5068991;28;20215;-75
2021/09/30 14:37:16;;;;;;;3.22;0.73;;;20.10;99.90;;;;;;5065989;28;20206;-77
2021/09/30 14:39:42;;;;;;;1.55;0.55;;;20.20;99.90;;;;;;5072463;28;20267;-80
2021/09/30 14:42:11;;;;;;;0.73;0.60;;;20.40;99.90;;;;;;5071775;28;20210;-78
2021/09/30 14:44:38;;;;;;;1.40;0.60;;;20.40;99.90;;;;;;5072115;28;20210;-82
2021/09/30 14:47:06;;;;;;;1.38;0.77;;;20.20;99.90;;;;;;5072339;28;20202;-80
2021/09/30 14:49:38;;;;;;;1.27;0.43;;;20.10;99.90;;;;;;5063712;28;20259;-77
2021/09/30 14:52:06;;;;;;;0.73;0.40;;;19.90;99.90;;;;;;5072266;28;20216;-78
2021/09/30 14:54:33;;;;;;;0.65;0.40;;;19.80;99.90;;;;;;5071072;28;20633;-78
2021/09/30 14:57:00;;;;;;;1.50;0.60;;;19.80;99.90;;;;;;5071903;28;20741;-78
2021/09/30 14:59:28;;;;;;;0.73;0.55;;;19.80;99.90;;;;;;5071358;28;20259;-77
2021/09/30 15:01:55;;;;;;;1.80;0.50;;;19.80;99.90;;;;;;5072124;28;20283;-79
2021/09/30 15:04:22;;;;;;;1.38;0.43;;;19.80;99.90;;;;;;5072238;28;20206;-77
2021/09/30 15:06:50;;;;;;;4.32;1.17;;;20.00;99.90;;;;;;5071485;28;20244;-77
2021/09/30 15:09:18;;;;;;;3.33;0.73;;;20.10;99.90;;;;;;5072160;28;20206;-76
2021/09/30 15:11:45;;;;;;;1.05;0.60;;;19.80;99.90;;;;;;5071356;28;20696;-77
2021/09/30 15:14:12;;;;;;;2.95;1.17;;;19.60;99.90;;;;;;5071788;28;20712;-77
2021/09/30 15:16:49;;;;;;;1.35;0.68;;;19.50;99.90;;;;;;5071393;28;20751;-77
2021/09/30 15:19:18;;;;;;;2.00;0.30;;;19.50;99.90;;;;;;5071846;28;20263;-77
2021/09/30 15:21:46;;;;;;;2.15;0.50;;;19.30;99.90;;;;;;5071120;28;20685;-77
2021/09/30 15:24:15;;;;;;;0.43;0.30;;;19.30;99.90;;;;;;5071493;28;20645;-77
2021/09/30 15:26:44;;;;;;;0.55;0.50;;;19.40;99.90;;;;;;5071179;28;20319;-77
2021/09/30 15:29:11;;;;;;;2.42;0.90;;;19.30;99.90;;;;;;5071715;28;20206;-77
2021/09/30 15:31:43;;;;;;;0.65;0.40;;;19.30;99.90;;;;;;5071007;28;20616;-77
2021/09/30 15:34:11;;;;;;;1.10;0.35;;;19.40;99.90;;;;;;5071231;28;20576;-77
2021/09/30 15:36:38;;;;;;;2.97;0.80;;;19.40;99.90;;;;;;5071329;28;20293;-77